sensor_id;sensor_type;location;lat;lon;timestamp;temperature;humidity
17452;DHT22;8843;48.838;9.324;2023-07-22T00:02:02;21.90;62.70
17452;DHT22;8843;48.838;9.324;2023-07-22T00:04:29;21.90;62.80
17452;DHT22;8843;48.838;9.324;2023-07-22T00:06:56;21.90;62.80
17452;DHT22;8843;48.838;9.324;2023-07-22T00:09:23;21.90;62.80
17452;DHT22;8843;48.838;9.324;2023-07-22T00:11:50;21.90;62.80
17452;DHT22;8843;48.838;9.324;2023-07-22T00:14:18;21.90;62.80
17452;DHT22;8843;48.838;9.324;2023-07-22T00:16:45;21.90;62.80
17452;DHT22;8843;48.838;9.324;2023-07-22T00:19:13;21.90;63.60
17452;DHT22;8843;48.838;9.324;2023-07-22T00:21:40;21.90;62.80
17452;DHT22;8843;48.838;9.324;2023-07-22T00:24:07;21.90;62.80
17452;DHT22;8843;48.838;9.324;2023-07-22T00:26:34;21.90;62.80
17452;DHT22;8843;48.838;9.324;2023-07-22T00:29:01;21.90;62.80
17452;DHT22;8843;48.838;9.324;2023-07-22T00:31:29;21.90;62.80
17452;DHT22;8843;48.838;9.324;2023-07-22T00:33:56;21.90;62.80
17452;DHT22;8843;48.838;9.324;2023-07-22T00:36:23;21.90;62.80
17452;DHT22;8843;48.838;9.324;2023-07-22T00:38:50;21.80;62.70
17452;DHT22;8843;48.838;9.324;2023-07-22T00:41:18;21.80;62.70
17452;DHT22;8843;48.838;9.324;2023-07-22T00:43:45;21.80;62.70
17452;DHT22;8843;48.838;9.324;2023-07-22T00:46:12;21.80;62.70
17452;DHT22;8843;48.838;9.324;2023-07-22T00:48:41;21.80;62.80
17452;DHT22;8843;48.838;9.324;2023-07-22T00:51:08;21.80;62.70
17452;DHT22;8843;48.838;9.324;2023-07-22T00:53:35;21.80;62.80
17452;DHT22;8843;48.838;9.324;2023-07-22T00:56:02;21.80;62.70
17452;DHT22;8843;48.838;9.324;2023-07-22T00:58:29;21.80;62.80
17452;DHT22;8843;48.838;9.324;2023-07-22T01:00:56;21.80;62.80
17452;DHT22;8843;48.838;9.324;2023-07-22T01:03:23;21.80;62.80
17452;DHT22;8843;48.838;9.324;2023-07-22T01:05:53;21.80;62.80
17452;DHT22;8843;48.838;9.324;2023-07-22T01:08:22;21.80;62.80
17452;DHT22;8843;48.838;9.324;2023-07-22T01:10:49;21.80;62.90
17452;DHT22;8843;48.838;9.324;2023-07-22T01:13:16;21.80;62.90
17452;DHT22;8843;48.838;9.324;2023-07-22T01:15:43;21.70;62.80
17452;DHT22;8843;48.838;9.324;2023-07-22T01:18:10;21.70;62.80
17452;DHT22;8843;48.838;9.324;2023-07-22T01:20:38;21.70;62.80
17452;DHT22;8843;48.838;9.324;2023-07-22T01:23:07;21.70;62.80
17452;DHT22;8843;48.838;9.324;2023-07-22T01:25:34;21.70;62.80
17452;DHT22;8843;48.838;9.324;2023-07-22T01:28:01;21.70;62.80
17452;DHT22;8843;48.838;9.324;2023-07-22T01:30:27;21.70;62.80
17452;DHT22;8843;48.838;9.324;2023-07-22T01:32:54;21.70;62.80
17452;DHT22;8843;48.838;9.324;2023-07-22T01:35:21;21.70;62.80
17452;DHT22;8843;48.838;9.324;2023-07-22T01:37:48;21.70;63.60
17452;DHT22;8843;48.838;9.324;2023-07-22T01:40:17;21.70;62.80
17452;DHT22;8843;48.838;9.324;2023-07-22T01:42:44;21.70;62.90
17452;DHT22;8843;48.838;9.324;2023-07-22T01:45:11;21.70;62.90
17452;DHT22;8843;48.838;9.324;2023-07-22T01:47:38;21.70;62.80
17452;DHT22;8843;48.838;9.324;2023-07-22T01:50:06;21.70;62.80
17452;DHT22;8843;48.838;9.324;2023-07-22T01:52:33;21.60;62.80
17452;DHT22;8843;48.838;9.324;2023-07-22T01:55:00;21.60;63.60
17452;DHT22;8843;48.838;9.324;2023-07-22T01:57:32;21.60;62.80
17452;DHT22;8843;48.838;9.324;2023-07-22T01:59:59;21.60;62.80
17452;DHT22;8843;48.838;9.324;2023-07-22T02:02:26;21.60;62.90
17452;DHT22;8843;48.838;9.324;2023-07-22T02:04:53;21.60;62.80
17452;DHT22;8843;48.838;9.324;2023-07-22T02:07:20;21.60;62.90
17452;DHT22;8843;48.838;9.324;2023-07-22T02:09:47;21.60;62.90
17452;DHT22;8843;48.838;9.324;2023-07-22T02:12:17;21.60;62.90
17452;DHT22;8843;48.838;9.324;2023-07-22T02:14:45;21.60;62.90
17452;DHT22;8843;48.838;9.324;2023-07-22T02:17:12;21.60;62.90
17452;DHT22;8843;48.838;9.324;2023-07-22T02:19:39;21.50;62.80
17452;DHT22;8843;48.838;9.324;2023-07-22T02:22:06;21.60;62.90
17452;DHT22;8843;48.838;9.324;2023-07-22T02:24:33;21.50;62.80
17452;DHT22;8843;48.838;9.324;2023-07-22T02:27:00;21.50;63.60
17452;DHT22;8843;48.838;9.324;2023-07-22T02:29:27;21.50;62.90
17452;DHT22;8843;48.838;9.324;2023-07-22T02:31:55;21.50;62.90
17452;DHT22;8843;48.838;9.324;2023-07-22T02:34:22;21.50;62.80
17452;DHT22;8843;48.838;9.324;2023-07-22T02:36:49;21.50;62.80
17452;DHT22;8843;48.838;9.324;2023-07-22T02:39:15;21.50;62.90
17452;DHT22;8843;48.838;9.324;2023-07-22T02:41:42;21.50;62.90
17452;DHT22;8843;48.838;9.324;2023-07-22T02:44:09;21.50;62.80
17452;DHT22;8843;48.838;9.324;2023-07-22T02:46:36;21.50;62.90
17452;DHT22;8843;48.838;9.324;2023-07-22T02:49:04;21.50;62.90
17452;DHT22;8843;48.838;9.324;2023-07-22T02:51:31;21.50;62.80
17452;DHT22;8843;48.838;9.324;2023-07-22T02:53:58;21.50;62.90
17452;DHT22;8843;48.838;9.324;2023-07-22T02:56:25;21.50;62.90
17452;DHT22;8843;48.838;9.324;2023-07-22T02:58:52;21.40;62.80
17452;DHT22;8843;48.838;9.324;2023-07-22T03:01:19;21.50;62.90
17452;DHT22;8843;48.838;9.324;2023-07-22T03:03:46;21.50;62.90
17452;DHT22;8843;48.838;9.324;2023-07-22T03:06:14;21.40;62.80
17452;DHT22;8843;48.838;9.324;2023-07-22T03:08:41;21.40;62.80
17452;DHT22;8843;48.838;9.324;2023-07-22T03:11:08;21.40;62.80
17452;DHT22;8843;48.838;9.324;2023-07-22T03:13:35;21.40;62.80
17452;DHT22;8843;48.838;9.324;2023-07-22T03:16:02;21.40;62.80
17452;DHT22;8843;48.838;9.324;2023-07-22T03:18:30;21.40;62.80
17452;DHT22;8843;48.838;9.324;2023-07-22T03:20:57;21.40;62.80
17452;DHT22;8843;48.838;9.324;2023-07-22T03:23:25;21.40;62.80
17452;DHT22;8843;48.838;9.324;2023-07-22T03:25:52;21.40;62.80
17452;DHT22;8843;48.838;9.324;2023-07-22T03:28:19;21.40;62.80
17452;DHT22;8843;48.838;9.324;2023-07-22T03:30:46;21.40;62.80
17452;DHT22;8843;48.838;9.324;2023-07-22T03:33:13;21.40;62.80
17452;DHT22;8843;48.838;9.324;2023-07-22T03:35:40;21.30;62.70
17452;DHT22;8843;48.838;9.324;2023-07-22T03:38:07;21.30;62.80
17452;DHT22;8843;48.838;9.324;2023-07-22T03:40:35;21.30;62.80
17452;DHT22;8843;48.838;9.324;2023-07-22T03:43:03;21.40;62.90
17452;DHT22;8843;48.838;9.324;2023-07-22T03:45:30;21.30;63.60
17452;DHT22;8843;48.838;9.324;2023-07-22T03:47:59;21.30;62.80
17452;DHT22;8843;48.838;9.324;2023-07-22T03:50:26;21.30;62.80
17452;DHT22;8843;48.838;9.324;2023-07-22T03:52:53;21.30;62.80
17452;DHT22;8843;48.838;9.324;2023-07-22T03:55:20;21.30;62.80
17452;DHT22;8843;48.838;9.324;2023-07-22T03:57:49;21.30;62.90
17452;DHT22;8843;48.838;9.324;2023-07-22T04:00:16;21.30;62.90
17452;DHT22;8843;48.838;9.324;2023-07-22T04:02:43;21.30;62.90
17452;DHT22;8843;48.838;9.324;2023-07-22T04:05:11;21.30;62.80
17452;DHT22;8843;48.838;9.324;2023-07-22T04:07:38;21.30;62.90
17452;DHT22;8843;48.838;9.324;2023-07-22T04:10:06;21.30;62.90
17452;DHT22;8843;48.838;9.324;2023-07-22T04:12:33;21.30;62.90
17452;DHT22;8843;48.838;9.324;2023-07-22T04:15:01;21.30;62.90
17452;DHT22;8843;48.838;9.324;2023-07-22T04:17:29;21.30;62.90
17452;DHT22;8843;48.838;9.324;2023-07-22T04:19:55;21.20;62.80
17452;DHT22;8843;48.838;9.324;2023-07-22T04:22:22;21.20;62.80
17452;DHT22;8843;48.838;9.324;2023-07-22T04:24:49;21.20;62.80
17452;DHT22;8843;48.838;9.324;2023-07-22T04:27:17;21.20;62.80
17452;DHT22;8843;48.838;9.324;2023-07-22T04:29:43;21.20;62.90
17452;DHT22;8843;48.838;9.324;2023-07-22T04:32:12;21.20;62.90
17452;DHT22;8843;48.838;9.324;2023-07-22T04:34:39;21.20;62.90
17452;DHT22;8843;48.838;9.324;2023-07-22T04:37:06;21.20;62.90
17452;DHT22;8843;48.838;9.324;2023-07-22T04:39:33;21.20;62.90
17452;DHT22;8843;48.838;9.324;2023-07-22T04:42:00;21.20;62.90
17452;DHT22;8843;48.838;9.324;2023-07-22T04:44:27;21.20;63.00
17452;DHT22;8843;48.838;9.324;2023-07-22T04:46:54;21.20;63.00
17452;DHT22;8843;48.838;9.324;2023-07-22T04:49:22;21.20;63.00
17452;DHT22;8843;48.838;9.324;2023-07-22T04:51:49;21.20;63.00
17452;DHT22;8843;48.838;9.324;2023-07-22T04:54:16;21.10;62.90
17452;DHT22;8843;48.838;9.324;2023-07-22T04:56:43;21.10;63.00
17452;DHT22;8843;48.838;9.324;2023-07-22T04:59:10;21.20;63.80
17452;DHT22;8843;48.838;9.324;2023-07-22T05:01:39;21.10;63.00
17452;DHT22;8843;48.838;9.324;2023-07-22T05:04:06;21.20;63.20
17452;DHT22;8843;48.838;9.324;2023-07-22T05:06:34;21.10;63.00
17452;DHT22;8843;48.838;9.324;2023-07-22T05:09:01;21.10;63.00
17452;DHT22;8843;48.838;9.324;2023-07-22T05:11:29;21.10;63.00
17452;DHT22;8843;48.838;9.324;2023-07-22T05:13:56;21.10;63.10
17452;DHT22;8843;48.838;9.324;2023-07-22T05:16:22;21.10;63.00
17452;DHT22;8843;48.838;9.324;2023-07-22T05:18:49;21.10;63.10
17452;DHT22;8843;48.838;9.324;2023-07-22T05:21:17;21.10;63.10
17452;DHT22;8843;48.838;9.324;2023-07-22T05:23:45;20.80;61.80
17452;DHT22;8843;48.838;9.324;2023-07-22T05:26:12;20.10;63.10
17452;DHT22;8843;48.838;9.324;2023-07-22T05:28:38;20.10;65.00
17452;DHT22;8843;48.838;9.324;2023-07-22T05:31:05;20.00;65.00
17452;DHT22;8843;48.838;9.324;2023-07-22T05:33:33;19.00;65.70
17452;DHT22;8843;48.838;9.324;2023-07-22T05:35:59;18.80;66.90
17452;DHT22;8843;48.838;9.324;2023-07-22T05:38:26;18.60;67.50
17452;DHT22;8843;48.838;9.324;2023-07-22T05:40:55;19.00;71.20
17452;DHT22;8843;48.838;9.324;2023-07-22T05:43:21;19.90;68.80
17452;DHT22;8843;48.838;9.324;2023-07-22T05:45:48;20.30;66.40
17452;DHT22;8843;48.838;9.324;2023-07-22T05:48:15;20.60;65.30
17452;DHT22;8843;48.838;9.324;2023-07-22T05:50:42;20.70;64.70
17452;DHT22;8843;48.838;9.324;2023-07-22T05:53:09;20.70;64.40
17452;DHT22;8843;48.838;9.324;2023-07-22T05:55:36;20.80;64.20
17452;DHT22;8843;48.838;9.324;2023-07-22T05:58:04;20.80;64.10
17452;DHT22;8843;48.838;9.324;2023-07-22T06:00:32;20.80;64.00
17452;DHT22;8843;48.838;9.324;2023-07-22T06:02:59;20.90;64.00
17452;DHT22;8843;48.838;9.324;2023-07-22T06:05:26;20.50;65.00
17452;DHT22;8843;48.838;9.324;2023-07-22T06:07:54;20.30;64.90
17452;DHT22;8843;48.838;9.324;2023-07-22T06:10:22;20.50;65.50
17452;DHT22;8843;48.838;9.324;2023-07-22T06:12:49;20.60;64.60
17452;DHT22;8843;48.838;9.324;2023-07-22T06:15:17;20.70;64.40
17452;DHT22;8843;48.838;9.324;2023-07-22T06:17:44;20.80;64.30
17452;DHT22;8843;48.838;9.324;2023-07-22T06:20:11;20.80;64.90
17452;DHT22;8843;48.838;9.324;2023-07-22T06:22:38;20.80;64.10
17452;DHT22;8843;48.838;9.324;2023-07-22T06:25:06;20.80;64.00
17452;DHT22;8843;48.838;9.324;2023-07-22T06:27:33;20.80;64.00
17452;DHT22;8843;48.838;9.324;2023-07-22T06:30:01;20.80;63.90
17452;DHT22;8843;48.838;9.324;2023-07-22T06:32:29;20.80;63.90
17452;DHT22;8843;48.838;9.324;2023-07-22T06:34:56;20.80;63.90
17452;DHT22;8843;48.838;9.324;2023-07-22T06:37:23;20.80;63.90
17452;DHT22;8843;48.838;9.324;2023-07-22T06:39:50;20.90;64.00
17452;DHT22;8843;48.838;9.324;2023-07-22T06:42:17;20.80;63.90
17452;DHT22;8843;48.838;9.324;2023-07-22T06:44:44;20.80;63.90
17452;DHT22;8843;48.838;9.324;2023-07-22T06:47:11;20.50;64.20
17452;DHT22;8843;48.838;9.324;2023-07-22T06:49:39;19.80;67.00
17452;DHT22;8843;48.838;9.324;2023-07-22T06:52:07;19.50;68.30
17452;DHT22;8843;48.838;9.324;2023-07-22T06:54:34;19.60;68.30
17452;DHT22;8843;48.838;9.324;2023-07-22T06:57:01;20.00;68.00
17452;DHT22;8843;48.838;9.324;2023-07-22T06:59:28;20.40;66.30
17452;DHT22;8843;48.838;9.324;2023-07-22T07:01:55;20.10;66.70
17452;DHT22;8843;48.838;9.324;2023-07-22T07:04:22;19.90;67.20
17452;DHT22;8843;48.838;9.324;2023-07-22T07:06:50;20.30;67.50
17452;DHT22;8843;48.838;9.324;2023-07-22T07:09:17;20.60;66.40
17452;DHT22;8843;48.838;9.324;2023-07-22T07:11:44;20.60;65.30
17452;DHT22;8843;48.838;9.324;2023-07-22T07:14:12;20.70;65.10
17452;DHT22;8843;48.838;9.324;2023-07-22T07:16:39;20.70;64.40
17452;DHT22;8843;48.838;9.324;2023-07-22T07:19:06;20.60;65.30
17452;DHT22;8843;48.838;9.324;2023-07-22T07:21:33;20.50;66.50
17452;DHT22;8843;48.838;9.324;2023-07-22T07:24:01;20.50;66.50
17452;DHT22;8843;48.838;9.324;2023-07-22T07:26:28;20.40;67.00
17452;DHT22;8843;48.838;9.324;2023-07-22T07:28:55;20.40;67.20
17452;DHT22;8843;48.838;9.324;2023-07-22T07:31:21;20.40;66.60
17452;DHT22;8843;48.838;9.324;2023-07-22T07:33:48;20.40;66.50
17452;DHT22;8843;48.838;9.324;2023-07-22T07:36:15;20.50;66.40
17452;DHT22;8843;48.838;9.324;2023-07-22T07:38:42;20.50;66.90
17452;DHT22;8843;48.838;9.324;2023-07-22T07:41:10;20.40;66.90
17452;DHT22;8843;48.838;9.324;2023-07-22T07:43:38;20.50;67.20
17452;DHT22;8843;48.838;9.324;2023-07-22T07:46:17;20.50;66.30
17452;DHT22;8843;48.838;9.324;2023-07-22T07:48:46;20.50;67.50
17452;DHT22;8843;48.838;9.324;2023-07-22T07:51:14;20.60;67.10
17452;DHT22;8843;48.838;9.324;2023-07-22T07:53:41;20.60;66.80
17452;DHT22;8843;48.838;9.324;2023-07-22T07:56:11;20.60;66.80
17452;DHT22;8843;48.838;9.324;2023-07-22T07:58:38;20.60;67.80
17452;DHT22;8843;48.838;9.324;2023-07-22T08:01:05;20.60;67.90
17452;DHT22;8843;48.838;9.324;2023-07-22T08:03:34;20.60;68.20
17452;DHT22;8843;48.838;9.324;2023-07-22T08:06:01;20.60;67.30
17452;DHT22;8843;48.838;9.324;2023-07-22T08:08:28;20.70;66.50
17452;DHT22;8843;48.838;9.324;2023-07-22T08:10:59;20.90;70.00
17452;DHT22;8843;48.838;9.324;2023-07-22T08:13:28;20.90;70.10
17452;DHT22;8843;48.838;9.324;2023-07-22T08:15:56;21.20;70.30
17452;DHT22;8843;48.838;9.324;2023-07-22T08:18:23;21.20;70.20
17452;DHT22;8843;48.838;9.324;2023-07-22T08:20:51;21.30;69.80
17452;DHT22;8843;48.838;9.324;2023-07-22T08:23:18;21.20;69.10
17452;DHT22;8843;48.838;9.324;2023-07-22T08:25:45;21.30;70.00
17452;DHT22;8843;48.838;9.324;2023-07-22T08:28:12;21.40;70.20
17452;DHT22;8843;48.838;9.324;2023-07-22T08:30:41;21.60;69.90
17452;DHT22;8843;48.838;9.324;2023-07-22T08:33:08;21.50;68.20
17452;DHT22;8843;48.838;9.324;2023-07-22T08:35:35;21.40;69.10
17452;DHT22;8843;48.838;9.324;2023-07-22T08:38:02;21.60;69.70
17452;DHT22;8843;48.838;9.324;2023-07-22T08:40:33;21.70;69.70
17452;DHT22;8843;48.838;9.324;2023-07-22T08:43:00;21.70;68.90
17452;DHT22;8843;48.838;9.324;2023-07-22T08:45:30;21.40;65.70
17452;DHT22;8843;48.838;9.324;2023-07-22T08:47:59;21.40;67.70
17452;DHT22;8843;48.838;9.324;2023-07-22T08:50:30;21.50;66.40
17452;DHT22;8843;48.838;9.324;2023-07-22T08:53:01;21.80;67.60
17452;DHT22;8843;48.838;9.324;2023-07-22T08:55:29;22.10;67.20
17452;DHT22;8843;48.838;9.324;2023-07-22T08:57:56;22.30;65.80
17452;DHT22;8843;48.838;9.324;2023-07-22T09:00:24;22.20;64.80
17452;DHT22;8843;48.838;9.324;2023-07-22T09:02:51;21.80;64.30
17452;DHT22;8843;48.838;9.324;2023-07-22T09:05:20;22.00;64.50
17452;DHT22;8843;48.838;9.324;2023-07-22T09:07:48;22.00;64.40
17452;DHT22;8843;48.838;9.324;2023-07-22T09:10:15;22.00;64.70
17452;DHT22;8843;48.838;9.324;2023-07-22T09:12:42;22.00;65.50
17452;DHT22;8843;48.838;9.324;2023-07-22T09:15:10;21.90;64.80
17452;DHT22;8843;48.838;9.324;2023-07-22T09:17:39;21.90;65.10
17452;DHT22;8843;48.838;9.324;2023-07-22T09:20:08;22.00;66.10
17452;DHT22;8843;48.838;9.324;2023-07-22T09:22:36;22.00;64.50
17452;DHT22;8843;48.838;9.324;2023-07-22T09:25:13;21.90;64.90
17452;DHT22;8843;48.838;9.324;2023-07-22T09:27:40;21.90;63.80
17452;DHT22;8843;48.838;9.324;2023-07-22T09:30:20;22.00;64.80
17452;DHT22;8843;48.838;9.324;2023-07-22T09:32:47;22.00;64.80
17452;DHT22;8843;48.838;9.324;2023-07-22T09:35:14;22.00;64.70
17452;DHT22;8843;48.838;9.324;2023-07-22T09:37:42;22.10;65.10
17452;DHT22;8843;48.838;9.324;2023-07-22T09:40:19;22.00;64.20
17452;DHT22;8843;48.838;9.324;2023-07-22T09:42:47;22.10;64.20
17452;DHT22;8843;48.838;9.324;2023-07-22T09:45:14;22.20;63.50
17452;DHT22;8843;48.838;9.324;2023-07-22T09:47:42;22.10;64.50
17452;DHT22;8843;48.838;9.324;2023-07-22T09:50:14;22.10;63.90
17452;DHT22;8843;48.838;9.324;2023-07-22T09:52:47;22.20;63.60
17452;DHT22;8843;48.838;9.324;2023-07-22T09:55:15;22.10;62.50
17452;DHT22;8843;48.838;9.324;2023-07-22T09:57:46;21.90;63.50
17452;DHT22;8843;48.838;9.324;2023-07-22T10:00:14;21.90;64.60
17452;DHT22;8843;48.838;9.324;2023-07-22T10:02:43;21.90;64.60
17452;DHT22;8843;48.838;9.324;2023-07-22T10:05:13;22.00;65.00
17452;DHT22;8843;48.838;9.324;2023-07-22T10:07:48;22.20;65.50
17452;DHT22;8843;48.838;9.324;2023-07-22T10:10:17;22.40;64.10
17452;DHT22;8843;48.838;9.324;2023-07-22T10:12:45;22.60;63.70
17452;DHT22;8843;48.838;9.324;2023-07-22T10:15:14;22.70;63.30
17452;DHT22;8843;48.838;9.324;2023-07-22T10:17:42;22.70;61.60
17452;DHT22;8843;48.838;9.324;2023-07-22T10:20:09;22.90;62.00
17452;DHT22;8843;48.838;9.324;2023-07-22T10:22:41;23.10;60.60
17452;DHT22;8843;48.838;9.324;2023-07-22T10:25:11;23.10;60.90
17452;DHT22;8843;48.838;9.324;2023-07-22T10:27:39;23.20;61.70
17452;DHT22;8843;48.838;9.324;2023-07-22T10:30:08;23.10;61.10
17452;DHT22;8843;48.838;9.324;2023-07-22T10:32:37;22.90;61.50
17452;DHT22;8843;48.838;9.324;2023-07-22T10:35:08;23.20;61.10
17452;DHT22;8843;48.838;9.324;2023-07-22T10:37:36;23.40;61.00
17452;DHT22;8843;48.838;9.324;2023-07-22T10:40:18;23.20;60.50
17452;DHT22;8843;48.838;9.324;2023-07-22T10:42:53;23.30;60.40
17452;DHT22;8843;48.838;9.324;2023-07-22T10:45:24;23.30;59.80
17452;DHT22;8843;48.838;9.324;2023-07-22T10:48:01;23.10;59.30
17452;DHT22;8843;48.838;9.324;2023-07-22T10:50:41;23.10;59.60
17452;DHT22;8843;48.838;9.324;2023-07-22T10:53:12;23.30;59.80
17452;DHT22;8843;48.838;9.324;2023-07-22T10:59:00;23.70;60.60
17452;DHT22;8843;48.838;9.324;2023-07-22T11:01:36;23.70;59.50
17452;DHT22;8843;48.838;9.324;2023-07-22T11:04:08;23.30;59.30
17452;DHT22;8843;48.838;9.324;2023-07-22T11:06:37;23.40;59.60
17452;DHT22;8843;48.838;9.324;2023-07-22T11:09:04;23.70;59.30
17452;DHT22;8843;48.838;9.324;2023-07-22T11:11:38;24.00;58.90
17452;DHT22;8843;48.838;9.324;2023-07-22T11:14:18;24.00;58.40
17452;DHT22;8843;48.838;9.324;2023-07-22T11:16:47;24.40;58.50
17452;DHT22;8843;48.838;9.324;2023-07-22T11:19:14;24.30;57.30
17452;DHT22;8843;48.838;9.324;2023-07-22T11:21:42;24.20;57.30
17452;DHT22;8843;48.838;9.324;2023-07-22T11:24:09;24.50;56.50
17452;DHT22;8843;48.838;9.324;2023-07-22T11:26:37;24.60;56.50
17452;DHT22;8843;48.838;9.324;2023-07-22T11:29:05;24.60;56.00
17452;DHT22;8843;48.838;9.324;2023-07-22T11:31:35;24.30;56.00
17452;DHT22;8843;48.838;9.324;2023-07-22T11:34:03;24.20;55.90
17452;DHT22;8843;48.838;9.324;2023-07-22T11:36:30;24.30;54.50
17452;DHT22;8843;48.838;9.324;2023-07-22T11:39:02;24.20;54.90
17452;DHT22;8843;48.838;9.324;2023-07-22T11:41:29;24.10;55.50
17452;DHT22;8843;48.838;9.324;2023-07-22T11:43:57;24.10;55.40
17452;DHT22;8843;48.838;9.324;2023-07-22T11:46:24;24.10;55.20
17452;DHT22;8843;48.838;9.324;2023-07-22T11:48:55;24.10;55.70
17452;DHT22;8843;48.838;9.324;2023-07-22T11:51:23;24.10;55.80
17452;DHT22;8843;48.838;9.324;2023-07-22T11:53:51;24.10;56.10
17452;DHT22;8843;48.838;9.324;2023-07-22T11:56:20;24.20;55.20
17452;DHT22;8843;48.838;9.324;2023-07-22T11:58:51;24.30;56.10
17452;DHT22;8843;48.838;9.324;2023-07-22T12:01:19;24.20;55.60
17452;DHT22;8843;48.838;9.324;2023-07-22T12:03:46;24.30;55.30
17452;DHT22;8843;48.838;9.324;2023-07-22T12:06:15;24.40;55.80
17452;DHT22;8843;48.838;9.324;2023-07-22T12:08:46;24.40;55.40
17452;DHT22;8843;48.838;9.324;2023-07-22T12:11:17;24.70;55.20
17452;DHT22;8843;48.838;9.324;2023-07-22T12:13:45;24.90;54.50
17452;DHT22;8843;48.838;9.324;2023-07-22T12:16:21;24.50;54.90
17452;DHT22;8843;48.838;9.324;2023-07-22T12:18:49;24.70;54.10
17452;DHT22;8843;48.838;9.324;2023-07-22T12:21:17;25.00;54.20
17452;DHT22;8843;48.838;9.324;2023-07-22T12:23:46;24.40;56.10
17452;DHT22;8843;48.838;9.324;2023-07-22T12:26:13;24.40;52.60
17452;DHT22;8843;48.838;9.324;2023-07-22T12:28:39;25.70;51.10
17452;DHT22;8843;48.838;9.324;2023-07-22T12:31:06;25.30;52.20
17452;DHT22;8843;48.838;9.324;2023-07-22T12:33:35;24.70;53.30
17452;DHT22;8843;48.838;9.324;2023-07-22T12:36:02;24.90;53.50
17452;DHT22;8843;48.838;9.324;2023-07-22T12:38:30;25.20;53.30
17452;DHT22;8843;48.838;9.324;2023-07-22T12:40:57;25.50;52.90
17452;DHT22;8843;48.838;9.324;2023-07-22T12:43:24;25.70;52.20
17452;DHT22;8843;48.838;9.324;2023-07-22T12:45:51;25.80;51.40
17452;DHT22;8843;48.838;9.324;2023-07-22T12:48:18;25.70;52.50
17452;DHT22;8843;48.838;9.324;2023-07-22T12:50:45;26.00;52.00
17452;DHT22;8843;48.838;9.324;2023-07-22T12:53:13;25.60;52.70
17452;DHT22;8843;48.838;9.324;2023-07-22T12:55:41;25.60;52.20
17452;DHT22;8843;48.838;9.324;2023-07-22T12:58:08;25.00;53.20
17452;DHT22;8843;48.838;9.324;2023-07-22T13:00:35;25.70;51.90
17452;DHT22;8843;48.838;9.324;2023-07-22T13:03:02;25.70;51.30
17452;DHT22;8843;48.838;9.324;2023-07-22T13:05:29;25.50;52.10
17452;DHT22;8843;48.838;9.324;2023-07-22T13:07:56;25.40;51.80
17452;DHT22;8843;48.838;9.324;2023-07-22T13:10:23;25.40;51.00
17452;DHT22;8843;48.838;9.324;2023-07-22T13:12:52;25.30;50.80
17452;DHT22;8843;48.838;9.324;2023-07-22T13:15:19;25.30;51.10
17452;DHT22;8843;48.838;9.324;2023-07-22T13:17:46;25.20;50.90
17452;DHT22;8843;48.838;9.324;2023-07-22T13:20:13;25.30;51.00
17452;DHT22;8843;48.838;9.324;2023-07-22T13:22:40;25.20;52.10
17452;DHT22;8843;48.838;9.324;2023-07-22T13:25:08;25.30;51.70
17452;DHT22;8843;48.838;9.324;2023-07-22T13:27:35;25.50;50.80
17452;DHT22;8843;48.838;9.324;2023-07-22T13:30:06;25.10;52.60
17452;DHT22;8843;48.838;9.324;2023-07-22T13:32:33;25.10;51.30
17452;DHT22;8843;48.838;9.324;2023-07-22T13:35:00;25.10;51.50
17452;DHT22;8843;48.838;9.324;2023-07-22T13:37:27;25.10;51.40
17452;DHT22;8843;48.838;9.324;2023-07-22T13:39:54;25.00;51.60
17452;DHT22;8843;48.838;9.324;2023-07-22T13:42:23;25.10;52.50
17452;DHT22;8843;48.838;9.324;2023-07-22T13:44:50;25.10;50.60
17452;DHT22;8843;48.838;9.324;2023-07-22T13:47:18;25.20;50.70
17452;DHT22;8843;48.838;9.324;2023-07-22T13:49:45;25.30;51.30
17452;DHT22;8843;48.838;9.324;2023-07-22T13:52:12;25.60;49.70
17452;DHT22;8843;48.838;9.324;2023-07-22T13:54:39;25.70;49.90
17452;DHT22;8843;48.838;9.324;2023-07-22T13:57:06;25.40;50.60
17452;DHT22;8843;48.838;9.324;2023-07-22T13:59:33;25.40;50.50
17452;DHT22;8843;48.838;9.324;2023-07-22T14:02:00;25.50;49.60
17452;DHT22;8843;48.838;9.324;2023-07-22T14:04:28;25.50;51.30
17452;DHT22;8843;48.838;9.324;2023-07-22T14:06:55;25.40;51.10
17452;DHT22;8843;48.838;9.324;2023-07-22T14:09:22;25.30;50.90
17452;DHT22;8843;48.838;9.324;2023-07-22T14:11:49;25.40;49.90
17452;DHT22;8843;48.838;9.324;2023-07-22T14:14:16;25.40;50.20
17452;DHT22;8843;48.838;9.324;2023-07-22T14:16:43;25.30;50.60
17452;DHT22;8843;48.838;9.324;2023-07-22T14:19:10;25.40;51.00
17452;DHT22;8843;48.838;9.324;2023-07-22T14:21:38;25.20;52.10
17452;DHT22;8843;48.838;9.324;2023-07-22T14:24:05;24.90;50.80
17452;DHT22;8843;48.838;9.324;2023-07-22T14:26:32;24.90;50.90
17452;DHT22;8843;48.838;9.324;2023-07-22T14:28:58;24.90;52.10
17452;DHT22;8843;48.838;9.324;2023-07-22T14:31:25;24.80;51.60
17452;DHT22;8843;48.838;9.324;2023-07-22T14:33:52;24.60;51.00
17452;DHT22;8843;48.838;9.324;2023-07-22T14:36:19;24.60;51.30
17452;DHT22;8843;48.838;9.324;2023-07-22T14:38:47;24.70;51.30
17452;DHT22;8843;48.838;9.324;2023-07-22T14:41:14;24.70;51.50
17452;DHT22;8843;48.838;9.324;2023-07-22T14:43:41;24.70;50.60
17452;DHT22;8843;48.838;9.324;2023-07-22T14:46:08;24.80;52.10
17452;DHT22;8843;48.838;9.324;2023-07-22T14:48:35;24.60;51.40
17452;DHT22;8843;48.838;9.324;2023-07-22T14:51:02;24.50;52.00
17452;DHT22;8843;48.838;9.324;2023-07-22T14:53:28;24.60;51.20
17452;DHT22;8843;48.838;9.324;2023-07-22T14:55:57;24.60;51.10
17452;DHT22;8843;48.838;9.324;2023-07-22T14:58:23;24.70;51.10
17452;DHT22;8843;48.838;9.324;2023-07-22T15:00:50;24.70;51.50
17452;DHT22;8843;48.838;9.324;2023-07-22T15:03:17;24.60;51.00
17452;DHT22;8843;48.838;9.324;2023-07-22T15:05:44;24.40;52.50
17452;DHT22;8843;48.838;9.324;2023-07-22T15:08:11;24.10;52.90
17452;DHT22;8843;48.838;9.324;2023-07-22T15:10:38;24.20;50.80
17452;DHT22;8843;48.838;9.324;2023-07-22T15:13:06;24.30;51.20
17452;DHT22;8843;48.838;9.324;2023-07-22T15:15:33;24.40;51.20
17452;DHT22;8843;48.838;9.324;2023-07-22T15:18:00;24.50;50.70
17452;DHT22;8843;48.838;9.324;2023-07-22T15:20:27;24.50;51.70
17452;DHT22;8843;48.838;9.324;2023-07-22T15:22:53;24.40;52.90
17452;DHT22;8843;48.838;9.324;2023-07-22T15:25:20;24.50;51.00
17452;DHT22;8843;48.838;9.324;2023-07-22T15:27:47;24.50;52.20
17452;DHT22;8843;48.838;9.324;2023-07-22T15:30:15;24.40;51.30
17452;DHT22;8843;48.838;9.324;2023-07-22T15:32:42;24.30;51.70
17452;DHT22;8843;48.838;9.324;2023-07-22T15:35:09;24.30;51.10
17452;DHT22;8843;48.838;9.324;2023-07-22T15:37:36;24.10;51.20
17452;DHT22;8843;48.838;9.324;2023-07-22T15:40:03;24.10;51.20
17452;DHT22;8843;48.838;9.324;2023-07-22T15:42:30;24.20;50.90
17452;DHT22;8843;48.838;9.324;2023-07-22T15:44:57;24.20;50.60
17452;DHT22;8843;48.838;9.324;2023-07-22T15:47:25;24.30;50.90
17452;DHT22;8843;48.838;9.324;2023-07-22T15:49:52;24.20;53.40
17452;DHT22;8843;48.838;9.324;2023-07-22T15:52:19;24.00;52.70